Accueil
METAR-TAF:

METAR-TAF

Aéroports :

Wattisham, Angleterre

latitude: 52-07N, longitude: 000-58E, altitude: 87 m

Observation

Le bulletin a été fait il y a 1 heure et 4 minutes, à 05:50 UTC
Vent 8 kt de nord/nord-ouest
Température 0°C
Humidité 100%
Pression 997 hPa
Visibilité: 2100 m
brume

METAR: EGUW 230550Z AUTO 34008KT 2100 BR SCT003/// BKN013/// M00/M00 Q0997

Heure: 06:54 (06:54 UTC)

Prévision

Le bulletin a été fait il y a 10 heures et 26 minutes, à 20:28 UTC
Prévision valable du 22 à 21 UTC au 22 à 24 UTC
Vent 6 kt de ouest/sud-ouest
Visibilité 10 km ou plus
Nuages épars à une hauteur de 2800 ft
Temporairement
du 22 à 21 UTC au 22 à 24 UTC
Visibilité: 4000 m
Nuages épars à une hauteur de 1800 ft
averses de pluie
Probabilité 40% :
Temporairement
du 22 à 21 UTC au 22 à 24 UTC
Nuages épars à une hauteur de 400 ft

TAF: EGUW 222028Z 2221/2224 24006KT 9999 SCT028 TEMPO 2221/2224 4000 SHRA SCT018 PROB40 TEMPO 2221/2224 SCT004

Observations et prévisions météorologiques de plus de 4000 aéroports (messages METAR et TAF).

Les stations disponibles sont représentées par des disques jaunes et rouges sur la carte.

Passer la souris dessus pour voir le nom de la station.

Cliquer dessus pour voir les observations et prévisions météorologiques.

Pour changer de carte: cliquez sur les boutons verts avec une croix noire pour zoomer, sur le bouton vert avec un tiret pour effectuer un zoom arrière, ou sur les flèches vertes pour les cartes adjacentes.


METAR-TAF: